Detroit, Michigan
Traffic Map
Current Weather Conditions
Detroit, Michigan
Broken Clouds
Broken Clouds
-5°
Feels Like: -11°
Wind Chill: -11° Ceiling: 27000
Heat Index: -5° Visibility: 15mi
Dew Point: -11° Wind: 12mph
Humidity: 63% Direction: 340° (NNW)
Pressure: 30.09in Gusts: 0mph
Raw Report DataCYQG 271900Z 34010KT 15SM FEW030 BKN270 M05/M11 A3009 RMK SC2CI5 SLP201
Traffic Incident Summary
Active as of:
Severity:
Category:
InformationThere was an issue retrieving the traffic information for this location. Please try a different location or try again shortly.
Advertisements
Track Severe Weather on mobile